Antrim, New Hampshire
Current Conditions -  °F | °C
As of 4:52 AM on Thursday 18 Dec 2014 (Local Time) from KAFN Reporting Station
Light Snow Light Snow  
Wind Chill: -4°   Ceiling: 4300
Heat Index:   Visibility: 5mi
Dew Point: -2°   Wind: 10mph
Humidity: 85%   Direction: 290°WNW
Pressure: 29.7"   Gusts: 18mph
Location:  43.03°N, 71.95°W
Report Text: KAFN 180952Z AUTO 29009G16KT 5SM -SN BR OVC043 01/M02 A2970 RMK AO2 SLP071 P0000 T00061017
Loading
Personal Weather Stations






























Interactive Weather Map New forecast layout! Learn more

10-Day Weather Forecast

Advertisements
Track Severe Weather on mobile